createdAt,value
2017-09-11T00:00:37.184Z,83.43
2017-09-11T00:03:05.024Z,83.30
2017-09-11T00:05:32.919Z,83.08
2017-09-11T00:08:00.751Z,83.05
2017-09-11T00:10:28.650Z,83.18
2017-09-11T00:12:56.483Z,83.25
2017-09-11T00:15:24.366Z,83.33
2017-09-11T00:17:52.216Z,83.41
2017-09-11T00:20:20.097Z,83.53
2017-09-11T00:22:47.971Z,83.57
2017-09-11T00:25:15.867Z,83.72
2017-09-11T00:27:43.700Z,83.85
2017-09-11T00:30:11.582Z,83.99
2017-09-11T00:32:39.490Z,84.28
2017-09-11T00:35:07.330Z,84.27
2017-09-11T00:37:35.226Z,84.15
2017-09-11T00:40:03.067Z,84.16
2017-09-11T00:42:30.945Z,84.05
2017-09-11T00:44:58.782Z,83.93
2017-09-11T00:47:26.670Z,83.95
2017-09-11T00:49:54.542Z,84.02
2017-09-11T00:52:22.477Z,84.00
2017-09-11T00:54:50.379Z,84.12
2017-09-11T00:57:18.263Z,83.99
2017-09-11T00:59:46.098Z,84.25
2017-09-11T01:02:13.987Z,84.14
2017-09-11T01:04:41.860Z,84.25
2017-09-11T01:07:09.773Z,83.93
2017-09-11T01:09:37.621Z,84.01
2017-09-11T01:12:05.536Z,84.06
2017-09-11T01:14:33.437Z,83.94
2017-09-11T01:17:01.323Z,83.95
2017-09-11T01:19:29.213Z,83.73
2017-09-11T01:21:57.122Z,83.71
2017-09-11T01:24:25.007Z,83.81
2017-09-11T01:26:52.992Z,83.71
2017-09-11T01:29:20.899Z,83.71
2017-09-11T01:31:48.855Z,83.88
2017-09-11T01:34:16.726Z,83.51
2017-09-11T01:36:44.628Z,83.32
2017-09-11T01:39:12.492Z,83.25
2017-09-11T01:41:40.375Z,83.27
2017-09-11T01:44:08.198Z,83.25
2017-09-11T01:46:36.079Z,83.33
2017-09-11T01:49:03.907Z,83.34
2017-09-11T01:51:31.896Z,83.32
2017-09-11T01:53:59.630Z,83.27
2017-09-11T01:56:27.551Z,83.03
2017-09-11T01:58:55.390Z,83.10
2017-09-11T02:01:23.266Z,82.95
2017-09-11T02:03:51.114Z,82.81
2017-09-11T02:06:19.042Z,82.78
2017-09-11T02:08:46.872Z,82.60
2017-09-11T02:11:14.728Z,82.21
2017-09-11T02:13:42.630Z,81.89
2017-09-11T02:16:10.523Z,82.00
2017-09-11T02:18:38.411Z,81.73
2017-09-11T02:21:06.290Z,81.95
2017-09-11T02:23:34.190Z,81.50
2017-09-11T02:26:02.069Z,81.64
2017-09-11T02:28:29.970Z,81.57
2017-09-11T02:30:57.878Z,81.44
2017-09-11T02:33:25.863Z,81.49
2017-09-11T02:35:53.751Z,81.57
2017-09-11T02:38:21.643Z,81.51
2017-09-11T02:40:49.400Z,81.28
2017-09-11T02:43:17.375Z,81.15
2017-09-11T02:45:45.215Z,81.34
2017-09-11T02:48:13.122Z,81.39
2017-09-11T02:50:40.947Z,81.28
2017-09-11T02:53:08.717Z,81.06
2017-09-11T02:55:36.551Z,81.23
2017-09-11T02:58:04.454Z,80.91
2017-09-11T03:00:32.302Z,81.04
2017-09-11T03:03:00.200Z,80.86
2017-09-11T03:05:28.051Z,80.79
2017-09-11T03:07:55.957Z,80.82
2017-09-11T03:10:23.800Z,80.92
2017-09-11T03:12:51.696Z,80.91
2017-09-11T03:15:19.524Z,81.07
2017-09-11T03:17:47.415Z,80.88
2017-09-11T03:20:15.295Z,80.79
2017-09-11T03:22:43.174Z,80.70
2017-09-11T03:25:11.026Z,80.76
2017-09-11T03:27:38.792Z,80.77
2017-09-11T03:30:06.471Z,80.66
2017-09-11T03:32:34.246Z,80.47
2017-09-11T03:35:01.927Z,80.59
2017-09-11T03:37:29.639Z,80.32
2017-09-11T03:39:57.344Z,80.62
2017-09-11T03:42:25.063Z,80.65
2017-09-11T03:44:52.723Z,80.50
2017-09-11T03:47:20.441Z,80.68
2017-09-11T03:49:48.099Z,80.41
2017-09-11T03:52:15.767Z,80.33
2017-09-11T03:54:43.465Z,80.23
2017-09-11T03:57:11.136Z,80.06
2017-09-11T03:59:38.853Z,80.28
2017-09-11T04:02:06.515Z,80.09
2017-09-11T04:04:34.217Z,79.97
2017-09-11T04:07:01.891Z,79.98
2017-09-11T04:09:29.593Z,80.31
2017-09-11T04:11:57.264Z,80.15
2017-09-11T04:14:24.963Z,80.30
2017-09-11T04:16:52.624Z,80.27
2017-09-11T04:19:20.334Z,80.03
2017-09-11T04:21:48.037Z,79.85
2017-09-11T04:24:15.805Z,80.06
2017-09-11T04:26:43.485Z,79.75
2017-09-11T04:29:11.238Z,79.75
2017-09-11T04:31:38.971Z,79.85
2017-09-11T04:34:06.713Z,79.72
2017-09-11T04:36:34.387Z,79.54
2017-09-11T04:39:02.111Z,79.30
2017-09-11T04:41:29.842Z,79.47
2017-09-11T04:43:57.538Z,79.18
2017-09-11T04:46:25.203Z,79.38
2017-09-11T04:48:52.936Z,78.98
2017-09-11T04:51:20.623Z,79.67
2017-09-11T04:53:48.347Z,80.79
2017-09-11T04:56:16.039Z,82.64
2017-09-11T04:58:43.773Z,82.82
2017-09-11T05:01:11.442Z,83.39
2017-09-11T05:03:39.155Z,83.92
2017-09-11T05:06:06.838Z,84.03
2017-09-11T05:08:34.586Z,84.09
2017-09-11T05:11:02.200Z,84.34
2017-09-11T05:13:29.931Z,84.67
2017-09-11T05:15:57.640Z,84.52
2017-09-11T05:18:25.357Z,84.86
2017-09-11T05:20:53.068Z,84.33
2017-09-11T05:23:20.804Z,84.30
2017-09-11T05:25:48.480Z,84.56
2017-09-11T05:28:16.187Z,84.37
2017-09-11T05:30:44.009Z,84.33
2017-09-11T05:33:11.744Z,84.27
2017-09-11T05:35:39.472Z,84.69
2017-09-11T05:38:07.174Z,84.78
2017-09-11T05:40:34.905Z,85.34
2017-09-11T05:43:02.639Z,85.20
2017-09-11T05:45:30.471Z,85.67
2017-09-11T05:47:58.171Z,85.43
2017-09-11T05:50:25.901Z,86.01
2017-09-11T05:52:53.581Z,86.58
2017-09-11T05:55:21.315Z,86.67
2017-09-11T05:57:49.003Z,87.33
2017-09-11T06:00:16.767Z,87.43
2017-09-11T06:02:44.509Z,87.69
2017-09-11T06:05:12.243Z,87.94
2017-09-11T06:07:39.962Z,87.90
2017-09-11T06:10:07.699Z,88.27
2017-09-11T06:12:35.366Z,88.22
2017-09-11T06:15:06.756Z,88.31
2017-09-11T06:17:34.449Z,88.17
2017-09-11T06:20:02.234Z,88.12
2017-09-11T06:22:29.940Z,87.81
2017-09-11T06:24:57.710Z,87.56
2017-09-11T06:27:25.396Z,87.83
2017-09-11T06:29:53.088Z,87.65
2017-09-11T06:32:20.876Z,87.76
2017-09-11T06:34:48.604Z,87.52
2017-09-11T06:37:16.334Z,87.26
2017-09-11T06:39:44.083Z,87.08
2017-09-11T06:42:11.817Z,87.44
2017-09-11T06:44:39.576Z,87.06
2017-09-11T06:47:07.240Z,87.19
2017-09-11T06:49:34.981Z,86.87
2017-09-11T06:52:02.661Z,86.40
2017-09-11T06:54:30.389Z,86.18
2017-09-11T06:56:58.068Z,86.49
2017-09-11T06:59:25.861Z,85.93
2017-09-11T07:01:53.564Z,86.02
2017-09-11T07:04:21.335Z,85.82
2017-09-11T07:06:49.003Z,86.08
2017-09-11T07:09:16.775Z,86.48
2017-09-11T07:11:44.669Z,86.33
2017-09-11T07:14:12.444Z,86.78
2017-09-11T07:16:40.151Z,86.41
2017-09-11T07:19:07.885Z,86.36
2017-09-11T07:21:35.533Z,85.76
2017-09-11T07:24:03.266Z,85.67
2017-09-11T07:26:31.018Z,85.89
2017-09-11T07:28:58.734Z,85.38
2017-09-11T07:31:26.490Z,85.56
2017-09-11T07:33:54.155Z,85.87
2017-09-11T07:36:21.887Z,85.94
2017-09-11T07:38:49.563Z,85.85
2017-09-11T07:41:17.304Z,85.59
2017-09-11T07:43:45.019Z,86.03
2017-09-11T07:46:12.801Z,86.72
2017-09-11T07:48:40.486Z,87.12
2017-09-11T07:51:08.217Z,87.13
2017-09-11T07:53:35.932Z,87.78
2017-09-11T07:56:03.685Z,88.05
2017-09-11T07:58:31.404Z,88.41
2017-09-11T08:00:59.169Z,88.79
2017-09-11T08:03:26.864Z,89.37
2017-09-11T08:05:54.618Z,89.56
2017-09-11T08:08:22.321Z,90.02
2017-09-11T08:10:50.055Z,89.85
2017-09-11T08:13:17.814Z,90.28
2017-09-11T08:15:45.559Z,90.37
2017-09-11T08:18:13.247Z,90.51
2017-09-11T08:20:40.958Z,90.41
2017-09-11T08:23:08.657Z,90.47
2017-09-11T08:25:36.399Z,90.15
2017-09-11T08:28:04.126Z,90.12
2017-09-11T08:30:31.882Z,90.13
2017-09-11T08:32:59.599Z,89.77
2017-09-11T08:35:27.363Z,90.10
2017-09-11T08:37:55.060Z,89.92
2017-09-11T08:40:22.793Z,89.70
2017-09-11T08:42:50.487Z,89.50
2017-09-11T08:45:18.230Z,89.10
2017-09-11T08:47:45.970Z,89.17
2017-09-11T08:50:13.744Z,89.09
2017-09-11T08:52:41.440Z,89.17
2017-09-11T08:55:09.210Z,88.63
2017-09-11T08:57:36.884Z,88.48
2017-09-11T09:00:04.649Z,88.10
2017-09-11T09:02:32.325Z,87.91
2017-09-11T09:05:00.057Z,87.95
2017-09-11T09:07:27.662Z,87.55
2017-09-11T09:09:55.372Z,87.39
2017-09-11T09:12:23.107Z,87.02
2017-09-11T09:14:50.805Z,87.72
2017-09-11T09:17:18.570Z,87.19
2017-09-11T09:19:46.235Z,87.02
2017-09-11T09:22:13.973Z,86.78
2017-09-11T09:24:41.647Z,86.19
2017-09-11T09:27:09.362Z,85.53
2017-09-11T09:29:37.065Z,84.82
2017-09-11T09:32:04.878Z,82.94
2017-09-11T09:34:32.570Z,82.49
2017-09-11T09:37:00.325Z,82.25
2017-09-11T09:39:28.027Z,81.53
2017-09-11T09:41:55.782Z,82.79
2017-09-11T09:44:23.452Z,81.52
2017-09-11T09:46:51.237Z,81.65
2017-09-11T09:49:18.964Z,81.05
2017-09-11T09:51:46.735Z,81.16
2017-09-11T09:54:14.439Z,80.57
2017-09-11T09:56:42.197Z,81.26
2017-09-11T09:59:09.911Z,80.90
2017-09-11T10:01:37.665Z,80.48
2017-09-11T10:04:05.359Z,80.45
2017-09-11T10:06:33.067Z,80.62
2017-09-11T10:09:00.745Z,81.60
2017-09-11T10:11:28.526Z,81.22
2017-09-11T10:13:56.225Z,81.67
2017-09-11T10:16:23.969Z,81.31
2017-09-11T10:18:51.658Z,80.54
2017-09-11T10:21:19.410Z,80.25
2017-09-11T10:23:47.081Z,78.92
2017-09-11T10:26:14.856Z,78.87
2017-09-11T10:28:42.528Z,77.33
2017-09-11T10:31:10.330Z,77.33
2017-09-11T10:33:38.017Z,77.41
2017-09-11T10:36:05.745Z,78.86
2017-09-11T10:38:33.446Z,79.90
2017-09-11T10:41:01.187Z,81.36
2017-09-11T10:43:28.913Z,81.50
2017-09-11T10:45:56.652Z,82.18
2017-09-11T10:48:24.385Z,81.49
2017-09-11T10:50:52.129Z,82.19
2017-09-11T10:53:19.821Z,82.60
2017-09-11T10:55:47.566Z,82.70
2017-09-11T10:58:15.258Z,82.33
2017-09-11T11:00:42.975Z,82.40
2017-09-11T11:03:10.733Z,82.90
2017-09-11T11:05:38.333Z,82.82
2017-09-11T11:08:06.057Z,82.88
2017-09-11T11:10:33.825Z,82.80
2017-09-11T11:13:01.594Z,82.23
2017-09-11T11:15:29.289Z,81.84
2017-09-11T11:17:57.016Z,81.04
2017-09-11T11:20:24.691Z,80.38
2017-09-11T11:22:52.433Z,78.79
2017-09-11T11:25:20.115Z,78.89
2017-09-11T11:27:47.746Z,78.12
2017-09-11T11:30:15.416Z,78.02
2017-09-11T11:32:43.192Z,76.64
2017-09-11T11:35:10.873Z,76.21
2017-09-11T11:37:38.649Z,75.54
2017-09-11T11:40:06.364Z,74.83
2017-09-11T11:42:34.109Z,73.70
2017-09-11T11:45:01.819Z,74.37
2017-09-11T11:47:29.559Z,74.12
2017-09-11T11:49:57.267Z,74.39
2017-09-11T11:52:25.027Z,76.17
2017-09-11T11:54:52.744Z,76.87
2017-09-11T11:57:20.477Z,76.58
2017-09-11T11:59:48.151Z,75.88
2017-09-11T12:02:15.876Z,75.46
2017-09-11T12:04:43.578Z,75.61
2017-09-11T12:07:11.333Z,75.10
2017-09-11T12:09:39.060Z,75.46
2017-09-11T12:12:06.838Z,75.76
2017-09-11T12:14:34.543Z,76.12
2017-09-11T12:17:02.293Z,76.30
2017-09-11T12:19:30.008Z,75.93
2017-09-11T12:21:57.730Z,74.77
2017-09-11T12:24:25.409Z,74.75
2017-09-11T12:26:53.136Z,74.24
2017-09-11T12:29:20.809Z,75.08
2017-09-11T12:31:48.605Z,75.38
2017-09-11T12:34:16.308Z,75.58
2017-09-11T12:36:44.029Z,75.65
2017-09-11T12:39:11.706Z,76.33
2017-09-11T12:41:39.481Z,75.82
2017-09-11T12:44:07.157Z,76.05
2017-09-11T12:46:34.846Z,76.17
2017-09-11T12:49:02.614Z,76.14
2017-09-11T12:51:30.334Z,77.15
2017-09-11T12:53:57.998Z,77.11
2017-09-11T12:56:25.715Z,76.99
2017-09-11T12:58:53.504Z,76.48
2017-09-11T13:01:21.205Z,77.02
2017-09-11T13:03:48.974Z,76.78
2017-09-11T13:06:16.670Z,76.60
2017-09-11T13:08:44.414Z,77.67
2017-09-11T13:11:12.135Z,78.28
2017-09-11T13:13:39.909Z,79.52
2017-09-11T13:16:07.638Z,80.46
2017-09-11T13:18:35.366Z,79.65
2017-09-11T13:21:03.094Z,79.24
2017-09-11T13:23:30.858Z,78.85
2017-09-11T13:25:58.571Z,79.70
2017-09-11T13:28:26.346Z,78.91
2017-09-11T13:30:54.044Z,79.32
2017-09-11T13:33:21.926Z,79.09
2017-09-11T13:35:49.641Z,79.85
2017-09-11T13:38:17.395Z,79.68
2017-09-11T13:40:45.059Z,79.26
2017-09-11T13:43:12.811Z,79.00
2017-09-11T13:45:40.533Z,78.50
2017-09-11T13:48:08.264Z,78.97
2017-09-11T13:50:35.950Z,78.77
2017-09-11T13:53:03.682Z,78.73
2017-09-11T13:55:31.375Z,78.07
2017-09-11T13:57:59.094Z,77.86
2017-09-11T14:00:26.777Z,77.53
2017-09-11T14:02:54.528Z,77.89
2017-09-11T14:05:22.233Z,77.99
2017-09-11T14:07:49.972Z,77.77
2017-09-11T14:10:17.674Z,78.76
2017-09-11T14:12:45.388Z,78.63
2017-09-11T14:15:13.070Z,79.52
2017-09-11T14:17:40.816Z,79.47
2017-09-11T14:20:08.544Z,79.47
2017-09-11T14:22:36.300Z,78.44
2017-09-11T14:25:03.996Z,78.21
2017-09-11T14:27:31.734Z,77.44
2017-09-11T14:29:59.440Z,77.79
2017-09-11T14:32:27.283Z,77.84
2017-09-11T14:34:55.016Z,77.78
2017-09-11T14:37:22.701Z,77.54
2017-09-11T14:39:50.462Z,75.29
2017-09-11T14:42:18.118Z,75.48
2017-09-11T14:44:45.883Z,75.38
2017-09-11T14:47:13.567Z,76.12
2017-09-11T14:49:41.344Z,75.98
2017-09-11T14:52:09.033Z,76.26
2017-09-11T14:54:36.762Z,76.61
2017-09-11T14:57:04.462Z,77.20
2017-09-11T14:59:32.190Z,77.58
2017-09-11T15:01:59.891Z,76.72
2017-09-11T15:04:27.671Z,76.84
2017-09-11T15:06:55.362Z,77.00
2017-09-11T15:09:23.099Z,76.83
2017-09-11T15:11:50.803Z,76.79
2017-09-11T15:14:18.548Z,77.01
2017-09-11T15:16:46.248Z,77.73
2017-09-11T15:19:14.014Z,77.21
2017-09-11T15:21:41.650Z,76.82
2017-09-11T15:24:09.456Z,77.27
2017-09-11T15:26:37.150Z,77.29
2017-09-11T15:29:04.884Z,75.34
2017-09-11T15:31:32.615Z,71.18
2017-09-11T15:34:00.355Z,66.74
2017-09-11T15:36:28.028Z,65.05
2017-09-11T15:38:55.758Z,63.02
2017-09-11T15:41:23.456Z,62.46
2017-09-11T15:43:51.217Z,62.96
2017-09-11T15:46:18.911Z,62.55
2017-09-11T15:48:46.653Z,62.63
2017-09-11T15:51:14.351Z,62.87
2017-09-11T15:53:42.072Z,62.77
2017-09-11T15:56:09.776Z,63.51
2017-09-11T15:58:37.511Z,64.24
2017-09-11T16:01:05.209Z,64.54
2017-09-11T16:03:32.981Z,65.50
2017-09-11T16:06:00.637Z,66.01
2017-09-11T16:08:28.360Z,67.09
2017-09-11T16:10:56.076Z,67.38
2017-09-11T16:13:23.890Z,67.09
2017-09-11T16:15:51.630Z,67.54
2017-09-11T16:18:19.343Z,67.48
2017-09-11T16:20:47.085Z,68.48
2017-09-11T16:23:14.785Z,68.26
2017-09-11T16:25:42.524Z,68.85
2017-09-11T16:28:10.244Z,69.91
2017-09-11T16:30:38.020Z,70.72
2017-09-11T16:33:05.757Z,70.16
2017-09-11T16:35:33.510Z,70.34
2017-09-11T16:38:01.185Z,69.98
2017-09-11T16:40:28.948Z,69.63
2017-09-11T16:42:56.669Z,68.13
2017-09-11T16:45:24.461Z,67.85
2017-09-11T16:47:52.155Z,67.64
2017-09-11T16:50:19.939Z,67.89
2017-09-11T16:52:47.619Z,67.87
2017-09-11T16:55:15.422Z,68.38
2017-09-11T16:57:43.202Z,67.96
2017-09-11T17:00:10.971Z,68.16
2017-09-11T17:02:38.797Z,68.63
2017-09-11T17:05:55.706Z,69.46
2017-09-11T17:08:23.442Z,70.13
2017-09-11T17:10:51.437Z,70.02
2017-09-11T17:13:19.142Z,70.39
2017-09-11T17:15:46.900Z,70.78
2017-09-11T17:18:14.699Z,71.04
2017-09-11T17:20:42.493Z,71.07
2017-09-11T17:23:10.241Z,71.68
2017-09-11T17:25:37.977Z,72.86
2017-09-11T17:28:05.658Z,73.61
2017-09-11T17:30:33.417Z,74.13
2017-09-11T17:33:01.309Z,74.60
2017-09-11T17:35:29.067Z,75.07
2017-09-11T17:37:56.806Z,76.56
2017-09-11T17:40:24.568Z,77.62
2017-09-11T17:42:52.308Z,78.69
2017-09-11T17:45:20.087Z,79.43
2017-09-11T17:47:47.836Z,79.81
2017-09-11T17:50:15.589Z,80.66
2017-09-11T17:52:43.278Z,81.36
2017-09-11T17:55:11.030Z,82.00
2017-09-11T17:57:38.723Z,82.92
2017-09-11T18:00:06.486Z,83.57
2017-09-11T18:02:34.186Z,83.81
2017-09-11T18:05:01.942Z,83.97
2017-09-11T18:07:29.637Z,84.25
2017-09-11T18:09:57.432Z,84.54
2017-09-11T18:12:25.192Z,84.83
2017-09-11T18:14:52.961Z,85.41
2017-09-11T18:17:20.687Z,85.70
2017-09-11T18:19:48.464Z,85.93
2017-09-11T18:22:16.180Z,86.06
2017-09-11T18:24:43.905Z,86.17
2017-09-11T18:27:11.598Z,86.50
2017-09-11T18:29:39.356Z,87.02
2017-09-11T18:32:07.071Z,87.16
2017-09-11T18:34:34.844Z,87.16
2017-09-11T18:37:02.555Z,87.35
2017-09-11T18:39:30.330Z,87.45
2017-09-11T18:41:58.028Z,87.46
2017-09-11T18:44:25.753Z,87.48
2017-09-11T18:46:53.503Z,87.30
2017-09-11T18:49:21.195Z,87.16
2017-09-11T18:51:48.946Z,86.94
2017-09-11T18:54:16.641Z,86.60
2017-09-11T18:56:44.379Z,86.34
2017-09-11T18:59:12.055Z,86.15
2017-09-11T19:01:39.804Z,86.11
2017-09-11T19:04:07.484Z,85.73
2017-09-11T19:06:35.259Z,84.81
2017-09-11T19:09:02.990Z,84.31
2017-09-11T19:11:30.757Z,83.94
2017-09-11T19:13:58.374Z,83.69
2017-09-11T19:16:26.128Z,83.73
2017-09-11T19:18:53.851Z,82.96
2017-09-11T19:21:21.561Z,82.94
2017-09-11T19:23:49.259Z,82.62
2017-09-11T19:26:17.009Z,82.24
2017-09-11T19:28:44.673Z,82.23
2017-09-11T19:31:12.424Z,82.50
2017-09-11T19:33:40.202Z,82.25
2017-09-11T19:36:07.982Z,82.35
2017-09-11T19:38:35.670Z,82.64
2017-09-11T19:41:03.401Z,82.78
2017-09-11T19:43:31.116Z,82.70
2017-09-11T19:45:58.846Z,82.60
2017-09-11T19:48:26.961Z,82.40
2017-09-11T19:50:54.689Z,82.51
2017-09-11T19:53:22.387Z,82.72
2017-09-11T19:55:50.069Z,82.88
2017-09-11T19:58:17.687Z,82.95
2017-09-11T20:00:45.455Z,82.81
2017-09-11T20:03:13.183Z,82.76
2017-09-11T20:05:40.944Z,82.91
2017-09-11T20:08:08.637Z,82.99
2017-09-11T20:10:36.367Z,82.87
2017-09-11T20:13:04.065Z,83.06
2017-09-11T20:15:31.847Z,82.88
2017-09-11T20:17:59.514Z,82.71
2017-09-11T20:20:27.196Z,81.95
2017-09-11T20:22:54.892Z,81.67
2017-09-11T20:25:22.591Z,81.18
2017-09-11T20:27:50.305Z,80.94
2017-09-11T20:30:18.034Z,80.56
2017-09-11T20:32:45.967Z,80.12
2017-09-11T20:35:13.655Z,80.22
2017-09-11T20:37:41.411Z,80.56
2017-09-11T20:40:09.101Z,80.69
2017-09-11T20:42:36.763Z,80.73
2017-09-11T20:45:04.462Z,80.41
2017-09-11T20:47:32.173Z,80.16
2017-09-11T20:49:59.888Z,80.22
2017-09-11T20:52:27.625Z,80.11
2017-09-11T20:54:55.316Z,80.17
2017-09-11T20:57:23.074Z,79.98
2017-09-11T20:59:50.764Z,80.20
2017-09-11T21:02:18.497Z,80.16
2017-09-11T21:04:46.184Z,80.14
2017-09-11T21:07:13.920Z,80.37
2017-09-11T21:09:41.598Z,80.72
2017-09-11T21:12:09.358Z,80.84
2017-09-11T21:14:37.149Z,80.81
2017-09-11T21:17:04.996Z,80.74
2017-09-11T21:19:32.742Z,80.62
2017-09-11T21:22:00.476Z,80.78
2017-09-11T21:24:28.167Z,80.68
2017-09-11T21:26:55.910Z,80.74
2017-09-11T21:29:23.594Z,80.81
2017-09-11T21:31:51.388Z,81.12
2017-09-11T21:34:19.093Z,81.48
2017-09-11T21:36:46.835Z,81.47
2017-09-11T21:39:14.533Z,81.51
2017-09-11T21:41:42.285Z,81.59
2017-09-11T21:44:09.891Z,81.45
2017-09-11T21:46:37.631Z,81.55
2017-09-11T21:49:05.349Z,81.69
2017-09-11T21:51:33.109Z,81.61
2017-09-11T21:54:00.702Z,81.48
2017-09-11T21:56:28.417Z,81.44
2017-09-11T21:58:56.113Z,81.49
2017-09-11T22:01:23.826Z,81.36
2017-09-11T22:03:51.442Z,81.81
2017-09-11T22:06:19.188Z,81.73
2017-09-11T22:08:46.860Z,81.82
2017-09-11T22:11:14.541Z,82.00
2017-09-11T22:13:42.262Z,82.08
2017-09-11T22:16:09.912Z,82.41
2017-09-11T22:18:37.642Z,82.54
2017-09-11T22:21:05.307Z,82.49
2017-09-11T22:23:33.079Z,82.46
2017-09-11T22:26:00.777Z,82.59
2017-09-11T22:28:28.493Z,82.42
2017-09-11T22:30:56.188Z,82.09
2017-09-11T22:33:23.984Z,81.81
2017-09-11T22:35:51.651Z,81.36
2017-09-11T22:38:19.375Z,81.49
2017-09-11T22:40:47.076Z,81.40
2017-09-11T22:43:14.805Z,81.24
2017-09-11T22:45:42.475Z,81.08
2017-09-11T22:48:10.183Z,80.78
2017-09-11T22:50:37.824Z,80.50
2017-09-11T22:53:05.489Z,80.50
2017-09-11T22:55:33.154Z,80.70
2017-09-11T22:58:00.907Z,80.73
2017-09-11T23:00:28.589Z,80.99
2017-09-11T23:02:56.332Z,81.11
2017-09-11T23:05:24.020Z,80.63
2017-09-11T23:07:51.755Z,80.92
2017-09-11T23:10:19.406Z,81.06
2017-09-11T23:12:47.144Z,81.30
2017-09-11T23:15:14.827Z,81.73
2017-09-11T23:17:42.536Z,82.02
2017-09-11T23:20:10.216Z,82.47
2017-09-11T23:22:37.929Z,82.57
2017-09-11T23:25:05.622Z,82.87
2017-09-11T23:27:33.383Z,83.30
2017-09-11T23:30:01.057Z,83.62
2017-09-11T23:32:28.816Z,83.97
2017-09-11T23:34:56.499Z,84.41
2017-09-11T23:37:24.145Z,84.58
2017-09-11T23:39:51.826Z,84.98
2017-09-11T23:42:19.579Z,85.20
2017-09-11T23:44:47.262Z,85.12
2017-09-11T23:47:14.968Z,85.19
2017-09-11T23:49:42.628Z,85.34
2017-09-11T23:52:10.385Z,85.29
2017-09-11T23:54:38.067Z,85.31
2017-09-11T23:57:05.737Z,85.37
2017-09-11T23:59:33.477Z,85.31
